Terminal Aerodrome Forecast
Issued by NWS Mt. Holly, NJ

Home | Current Version | Previous Version | Text Only | Print | Product List | Glossary On
Versions: 1 2 3 4 5 6 7 8 9 10 11 12 13 14 15 16 17 18 19 20 21 22 23
000
FTAK31 PANC 202323
TAFABE
TAF
PABE 202323Z 2100/2124 04014KT P6SM BKN120
     FM210500 09013KT P6SM SCT060 OVC100
     FM210900 16015KT P6SM BKN050 OVC100
     FM211200 20020G30KT 3SM -SN BLSN BKN020 OVC030
     FM211800 24018G27KT P6SM -SHSN BKN035=

USA.gov is the U.S. government's official web portal to all federal, state and local government web resources and services.